Decoded Metar for YBWX ( in ) (IATA:) | Meteo·Mobile Aviation Weather
aviador You're here:

YBWX Decoded Metar

in
Report Time2018-09-21 11:00:00
UTC Time2018-09-21 11:29:58
Flight Rules unknown UNKNOWN
Wind360° at 10 kt
W.Decomp.*RWY 03: 8.7 kt HW 5 kt LCW
VisibilityN/A
Phenomena:N/A
Clouds:N/A
Expected CloudBase > 5,200 ft AGL from Temp-Dew spread
CeilingNone
Temp24°C
Dew Point11°C (44% RH)
AAT20.7°C
QNH1016 hPa
Raw Report
METAR YBWX 211100Z AUTO 36010KT //// // ////// 24/11 Q1016=

Extra information for YBWX:More info

Social comments